Time;durP1;ratioP1;P1;durP2;ratioP2;P2;SDS_P1;SDS_P2;PMS_P1;PMS_P2;Temp;Humidity;BMP_temperature;BMP_pressure;BME280_temperature;BME280_humidity;BME280_pressure;Samples;Min_cycle;Max_cycle;Signal;HPM_P1;HPM_P2
2021/03/26 00:02:09;;;;;;;62.25;29.73;;;;;;;;;;5116337;28;20047;-80
2021/03/26 00:04:35;;;;;;;68.47;30.65;;;;;;;;;;5117058;28;20107;-79
2021/03/26 00:07:02;;;;;;;64.55;29.25;;;;;;;;;;5129358;28;20048;-80
2021/03/26 00:09:34;;;;;;;69.07;32.58;;;;;;;;;;5129310;28;20059;-79
2021/03/26 00:12:04;;;;;;;81.22;33.55;;;;;;;;;;5123231;28;20326;-80
2021/03/26 00:14:30;;;;;;;72.13;32.63;;;;;;;;;;5117121;28;20388;-80
2021/03/26 00:16:57;;;;;;;70.93;32.72;;;;;;;;;;5116446;28;20062;-80
2021/03/26 00:19:23;;;;;;;75.22;33.88;;;;;;;;;;5117177;28;20052;-79
2021/03/26 00:21:49;;;;;;;79.53;33.80;;;;;;;;;;5116093;28;20187;-79
2021/03/26 00:24:16;;;;;;;70.18;33.25;;;;;;;;;;5116640;28;20108;-80
2021/03/26 00:26:41;;;;;;;81.13;34.53;;;;;;;;;;5117032;28;20053;-79
2021/03/26 00:29:18;;;;;;;76.47;34.05;;;;;;;;;;5117613;28;20086;-80
2021/03/26 00:31:44;;;;;;;80.97;36.20;;;;;;;;;;5128562;28;20031;-79
2021/03/26 00:34:10;;;;;;;79.05;34.47;;;;;;;;;;5130565;28;20043;-79
2021/03/26 00:36:39;;;;;;;76.25;32.08;;;;;;;;;;5130398;28;20128;-80
2021/03/26 00:39:08;;;;;;;81.45;35.95;;;;;;;;;;5129663;28;20111;-79
2021/03/26 00:41:35;;;;;;;79.60;34.45;;;;;;;;;;5116736;28;20142;-79
2021/03/26 00:44:05;;;;;;;73.65;32.85;;;;;;;;;;5116007;28;20327;-80
2021/03/26 00:46:33;;;;;;;78.97;36.03;;;;;;;;;;5118482;28;20048;-80
2021/03/26 00:48:59;;;;;;;76.72;33.80;;;;;;;;;;5118506;28;20066;-80
2021/03/26 00:51:25;;;;;;;86.07;36.03;;;;;;;;;;5115833;28;20314;-80
2021/03/26 00:53:55;;;;;;;83.05;35.05;;;;;;;;;;5115445;28;20335;-79
2021/03/26 00:56:21;;;;;;;86.10;35.85;;;;;;;;;;5128060;28;20047;-79
2021/03/26 00:58:50;;;;;;;82.28;35.22;;;;;;;;;;5128476;28;20098;-79
2021/03/26 01:01:17;;;;;;;85.55;36.40;;;;;;;;;;5120872;28;20122;-80
2021/03/26 01:03:43;;;;;;;85.07;33.80;;;;;;;;;;5116424;28;20051;-80
2021/03/26 01:06:13;;;;;;;102.47;40.33;;;;;;;;;;5119972;28;20058;-80
2021/03/26 01:08:41;;;;;;;90.50;37.08;;;;;;;;;;5133252;28;20318;-79
2021/03/26 01:11:14;;;;;;;94.00;41.72;;;;;;;;;;5125551;28;20078;-80
2021/03/26 01:14:07;;;;;;;92.03;37.85;;;;;;;;;;5120539;27;20047;-80
2021/03/26 01:16:33;;;;;;;82.57;36.10;;;;;;;;;;5116610;28;20055;-80
2021/03/26 01:19:01;;;;;;;90.05;37.17;;;;;;;;;;5118304;28;20063;-80
2021/03/26 01:21:29;;;;;;;95.90;38.42;;;;;;;;;;5119520;28;20112;-80
2021/03/26 01:23:57;;;;;;;103.80;41.33;;;;;;;;;;5120389;28;20309;-80
2021/03/26 01:26:23;;;;;;;92.35;38.50;;;;;;;;;;5118942;28;20071;-79
2021/03/26 01:28:50;;;;;;;90.93;37.92;;;;;;;;;;5118978;28;20090;-80
2021/03/26 01:31:18;;;;;;;85.05;37.63;;;;;;;;;;5119985;28;20086;-80
2021/03/26 01:33:45;;;;;;;84.43;37.00;;;;;;;;;;5118784;28;20059;-80
2021/03/26 01:36:13;;;;;;;86.82;37.17;;;;;;;;;;5119559;28;20059;-80
2021/03/26 01:38:50;;;;;;;83.55;36.92;;;;;;;;;;5120383;28;20305;-80
2021/03/26 01:41:28;;;;;;;101.47;41.55;;;;;;;;;;5119840;28;20422;-80
2021/03/26 01:43:54;;;;;;;103.25;39.83;;;;;;;;;;5128985;28;20107;-80
2021/03/26 01:46:21;;;;;;;108.82;42.85;;;;;;;;;;5129694;28;20062;-79
2021/03/26 01:48:53;;;;;;;110.38;43.92;;;;;;;;;;5127144;28;20043;-80
2021/03/26 01:51:31;;;;;;;99.28;41.75;;;;;;;;;;5122394;28;20050;-80
2021/03/26 01:53:58;;;;;;;99.10;40.78;;;;;;;;;;5117279;28;20305;-80
2021/03/26 01:56:27;;;;;;;85.53;39.17;;;;;;;;;;5116090;28;20066;-80
2021/03/26 01:58:56;;;;;;;103.60;42.88;;;;;;;;;;5117865;28;20047;-80
2021/03/26 02:01:26;;;;;;;97.28;40.90;;;;;;;;;;5118198;28;20044;-80
2021/03/26 02:03:58;;;;;;;102.00;43.88;;;;;;;;;;5118955;28;20044;-81
2021/03/26 02:06:28;;;;;;;114.65;44.55;;;;;;;;;;5129736;28;20048;-80
2021/03/26 02:09:21;;;;;;;107.82;44.78;;;;;;;;;;5135226;28;20047;-80
2021/03/26 02:11:51;;;;;;;100.97;43.08;;;;;;;;;;5118205;28;20078;-80
2021/03/26 02:14:36;;;;;;;101.07;43.25;;;;;;;;;;5118576;28;20048;-80
2021/03/26 02:17:03;;;;;;;109.95;43.92;;;;;;;;;;5117704;28;20108;-80
2021/03/26 02:19:33;;;;;;;112.63;44.35;;;;;;;;;;5117176;28;20063;-79
2021/03/26 02:22:01;;;;;;;111.85;44.20;;;;;;;;;;5124367;28;20168;-79
2021/03/26 02:24:28;;;;;;;114.63;45.40;;;;;;;;;;5127435;28;20085;-81
2021/03/26 02:26:59;;;;;;;106.45;45.92;;;;;;;;;;5128773;28;20061;-80
2021/03/26 02:29:27;;;;;;;121.07;46.17;;;;;;;;;;5129117;28;20048;-80
2021/03/26 02:31:57;;;;;;;111.68;45.22;;;;;;;;;;5131267;28;20040;-80
2021/03/26 02:34:29;;;;;;;123.60;46.35;;;;;;;;;;5124628;28;20070;-81
2021/03/26 02:37:02;;;;;;;126.97;47.50;;;;;;;;;;5119981;28;20062;-81
2021/03/26 02:39:33;;;;;;;114.47;47.58;;;;;;;;;;5118935;28;20099;-81
2021/03/26 02:42:02;;;;;;;120.53;45.35;;;;;;;;;;5119789;28;20354;-81
2021/03/26 02:44:39;;;;;;;120.07;46.50;;;;;;;;;;5119816;28;20097;-81
2021/03/26 02:47:27;;;;;;;122.93;46.28;;;;;;;;;;5118811;28;20047;-81
2021/03/26 02:50:04;;;;;;;122.30;47.03;;;;;;;;;;5117843;28;20043;-81
2021/03/26 02:52:37;;;;;;;122.80;46.65;;;;;;;;;;5117497;28;20055;-80
2021/03/26 02:55:22;;;;;;;125.20;49.25;;;;;;;;;;5118174;28;20044;-80
2021/03/26 02:57:55;;;;;;;124.32;49.13;;;;;;;;;;5117202;28;20243;-81
2021/03/26 03:00:25;;;;;;;109.68;46.72;;;;;;;;;;5119167;28;20047;-81
2021/03/26 03:02:57;;;;;;;117.95;46.90;;;;;;;;;;5118146;28;20438;-80
2021/03/26 03:05:32;;;;;;;119.10;46.45;;;;;;;;;;5116573;28;20047;-81
2021/03/26 03:08:04;;;;;;;118.93;47.53;;;;;;;;;;5116139;28;20055;-80
2021/03/26 03:10:42;;;;;;;128.20;48.03;;;;;;;;;;5116068;28;20355;-80
2021/03/26 03:13:08;;;;;;;122.78;48.60;;;;;;;;;;5117158;28;20422;-81
2021/03/26 03:15:37;;;;;;;121.68;46.55;;;;;;;;;;5117158;28;20134;-81
2021/03/26 03:18:11;;;;;;;117.28;46.55;;;;;;;;;;5116441;28;20074;-81
2021/03/26 03:20:57;;;;;;;115.55;46.25;;;;;;;;;;5118567;28;20121;-81
2021/03/26 03:23:33;;;;;;;109.35;43.42;;;;;;;;;;5117283;28;20052;-80
2021/03/26 03:26:01;;;;;;;120.07;47.38;;;;;;;;;;5117082;28;20272;-81
2021/03/26 03:28:31;;;;;;;122.68;48.05;;;;;;;;;;5117391;28;20498;-81
2021/03/26 03:30:59;;;;;;;114.85;47.78;;;;;;;;;;5117978;28;20303;-81
2021/03/26 03:33:40;;;;;;;122.38;47.08;;;;;;;;;;5118024;28;20182;-80
2021/03/26 03:36:11;;;;;;;124.50;46.22;;;;;;;;;;5116945;28;20523;-80
2021/03/26 03:38:37;;;;;;;118.97;47.13;;;;;;;;;;5116386;28;20061;-80
2021/03/26 03:41:18;;;;;;;122.65;46.30;;;;;;;;;;5116914;28;20079;-80
2021/03/26 03:43:50;;;;;;;118.45;46.00;;;;;;;;;;5117129;28;20115;-80
2021/03/26 03:46:26;;;;;;;112.10;45.47;;;;;;;;;;5116099;28;20398;-81
2021/03/26 03:49:07;;;;;;;117.15;46.28;;;;;;;;;;5117434;28;20039;-81
2021/03/26 03:51:35;;;;;;;119.63;47.35;;;;;;;;;;5113447;28;20047;-80
2021/03/26 03:54:28;;;;;;;128.15;48.53;;;;;;;;;;5115349;28;20055;-79
2021/03/26 03:56:59;;;;;;;112.45;45.75;;;;;;;;;;5117062;28;20339;-81
2021/03/26 03:59:37;;;;;;;115.68;46.75;;;;;;;;;;5110763;28;20197;-81
2021/03/26 04:02:22;;;;;;;110.03;46.30;;;;;;;;;;5095549;28;20043;-80
2021/03/26 04:04:53;;;;;;;109.50;43.95;;;;;;;;;;5104071;28;20079;-80
2021/03/26 04:07:25;;;;;;;118.13;46.42;;;;;;;;;;5104770;28;20031;-80
2021/03/26 04:09:52;;;;;;;116.07;45.55;;;;;;;;;;5102491;28;20074;-80
2021/03/26 04:12:36;;;;;;;129.32;50.58;;;;;;;;;;5107277;28;20048;-80
2021/03/26 04:15:15;;;;;;;137.38;52.25;;;;;;;;;;5113368;28;20044;-81
2021/03/26 04:18:00;;;;;;;127.47;49.65;;;;;;;;;;5108398;28;20046;-82
2021/03/26 04:20:29;;;;;;;123.50;48.83;;;;;;;;;;5110006;28;20058;-82
2021/03/26 04:23:06;;;;;;;130.38;48.42;;;;;;;;;;5110189;28;20048;-81
2021/03/26 04:25:34;;;;;;;122.53;49.63;;;;;;;;;;5126847;28;20481;-80
2021/03/26 04:28:12;;;;;;;125.57;48.88;;;;;;;;;;5125476;28;20052;-80
2021/03/26 04:30:54;;;;;;;123.10;48.42;;;;;;;;;;5130989;28;20115;-82
2021/03/26 04:33:21;;;;;;;130.48;50.00;;;;;;;;;;5130124;28;20058;-82
2021/03/26 04:35:49;;;;;;;122.95;52.95;;;;;;;;;;5130599;28;20047;-81
2021/03/26 04:38:26;;;;;;;124.72;46.95;;;;;;;;;;5127042;28;20256;-81
2021/03/26 04:40:52;;;;;;;122.95;48.35;;;;;;;;;;5130277;28;20403;-82
2021/03/26 04:43:30;;;;;;;114.60;46.15;;;;;;;;;;5130715;28;20107;-82
2021/03/26 04:46:02;;;;;;;129.35;52.03;;;;;;;;;;5124640;28;20064;-81
2021/03/26 04:48:39;;;;;;;118.53;50.15;;;;;;;;;;5126855;28;20066;-82
2021/03/26 04:51:15;;;;;;;112.57;46.38;;;;;;;;;;5125455;28;20047;-82
2021/03/26 04:53:44;;;;;;;128.23;50.30;;;;;;;;;;5122277;28;20047;-81
2021/03/26 04:56:22;;;;;;;114.68;46.95;;;;;;;;;;5122774;27;20044;-80
2021/03/26 04:58:55;;;;;;;125.07;48.80;;;;;;;;;;5120642;28;20047;-81
2021/03/26 05:01:32;;;;;;;131.80;51.13;;;;;;;;;;5117930;28;20116;-81
2021/03/26 05:04:11;;;;;;;131.90;51.60;;;;;;;;;;5119199;28;20120;-81
2021/03/26 05:06:46;;;;;;;113.40;48.50;;;;;;;;;;5121205;28;20147;-81
2021/03/26 05:09:27;;;;;;;119.65;49.75;;;;;;;;;;5135140;28;20110;-80
2021/03/26 05:12:08;;;;;;;129.65;52.45;;;;;;;;;;5133315;28;20051;-80
2021/03/26 05:14:41;;;;;;;135.70;53.85;;;;;;;;;;5122160;28;20074;-82
2021/03/26 05:17:16;;;;;;;110.35;49.13;;;;;;;;;;5118432;28;20043;-82
2021/03/26 05:19:46;;;;;;;132.57;54.08;;;;;;;;;;5121214;28;20111;-82
2021/03/26 05:22:31;;;;;;;125.05;52.38;;;;;;;;;;5129769;28;20107;-81
2021/03/26 05:25:02;;;;;;;120.10;51.42;;;;;;;;;;5128282;28;20047;-82
2021/03/26 05:27:28;;;;;;;127.53;53.20;;;;;;;;;;5113302;28;20380;-82
2021/03/26 05:29:59;;;;;;;120.22;51.65;;;;;;;;;;5111203;28;20052;-82
2021/03/26 05:32:32;;;;;;;135.35;57.08;;;;;;;;;;5109336;28;20062;-82
2021/03/26 05:35:00;;;;;;;133.30;55.80;;;;;;;;;;5101429;28;20101;-82
2021/03/26 05:37:31;;;;;;;131.48;54.30;;;;;;;;;;5098838;28;20048;-82
2021/03/26 05:40:20;;;;;;;141.40;57.63;;;;;;;;;;5095308;28;20422;-81
2021/03/26 05:43:05;;;;;;;145.52;57.78;;;;;;;;;;5085331;28;20442;-81
2021/03/26 05:45:37;;;;;;;136.35;55.78;;;;;;;;;;5094655;28;20147;-82
2021/03/26 05:48:27;;;;;;;155.73;61.22;;;;;;;;;;5095730;28;20051;-82
2021/03/26 05:51:16;;;;;;;144.50;62.28;;;;;;;;;;5104607;28;20040;-82
2021/03/26 05:53:44;;;;;;;;;;;;;;;;;;5109792;28;20050;-82
2021/03/26 05:56:32;;;;;;;137.00;58.53;;;;;;;;;;5145410;27;19908;-82
2021/03/26 05:59:18;;;;;;;122.43;58.67;;;;;;;;;;5107217;28;20064;-81
2021/03/26 06:01:51;;;;;;;106.65;52.28;;;;;;;;;;5095554;28;20497;-81
2021/03/26 06:04:23;;;;;;;88.97;47.25;;;;;;;;;;5094988;28;20183;-81
2021/03/26 06:06:56;;;;;;;101.22;50.38;;;;;;;;;;5094469;28;20044;-81
2021/03/26 06:09:32;;;;;;;85.07;46.00;;;;;;;;;;5093938;28;20345;-80
2021/03/26 06:12:07;;;;;;;86.63;45.13;;;;;;;;;;5092160;28;20370;-79
2021/03/26 06:14:43;;;;;;;84.60;44.20;;;;;;;;;;5094545;28;20095;-80
2021/03/26 06:17:30;;;;;;;76.00;41.03;;;;;;;;;;5108173;28;20047;-80
2021/03/26 06:20:22;;;;;;;70.70;38.40;;;;;;;;;;5110346;28;20058;-79
2021/03/26 06:23:09;;;;;;;71.10;38.30;;;;;;;;;;5109129;28;20395;-79
2021/03/26 06:25:45;;;;;;;66.32;38.53;;;;;;;;;;5111741;28;20075;-79
2021/03/26 06:28:30;;;;;;;61.05;35.35;;;;;;;;;;5113171;28;20055;-80
2021/03/26 06:31:32;;;;;;;64.20;35.92;;;;;;;;;;5114612;28;20112;-80
2021/03/26 06:34:19;;;;;;;64.45;36.88;;;;;;;;;;5093737;27;20172;-81
2021/03/26 06:36:48;;;;;;;62.35;35.25;;;;;;;;;;5138739;27;20047;-79
2021/03/26 06:39:15;;;;;;;62.60;37.50;;;;;;;;;;5141987;27;20439;-80
2021/03/26 06:42:01;;;;;;;58.47;35.20;;;;;;;;;;5135628;27;20487;-80
2021/03/26 06:44:27;;;;;;;59.17;36.00;;;;;;;;;;5133804;27;20082;-80
2021/03/26 06:47:08;;;;;;;58.30;33.97;;;;;;;;;;5097459;27;20138;-80
2021/03/26 06:49:37;;;;;;;58.92;33.22;;;;;;;;;;5093220;28;20079;-80
2021/03/26 06:52:09;;;;;;;56.63;34.70;;;;;;;;;;5108572;28;20473;-79
2021/03/26 06:54:59;;;;;;;58.97;34.40;;;;;;;;;;5112898;28;20062;-79
2021/03/26 06:57:36;;;;;;;57.95;34.88;;;;;;;;;;5113334;28;20476;-80
2021/03/26 07:00:25;;;;;;;60.08;33.60;;;;;;;;;;5112284;28;20040;-80
2021/03/26 07:02:57;;;;;;;59.13;33.85;;;;;;;;;;5112019;28;20047;-80
2021/03/26 07:05:45;;;;;;;62.83;36.70;;;;;;;;;;5106494;27;20156;-82
2021/03/26 07:08:25;;;;;;;62.92;36.53;;;;;;;;;;5110969;28;20332;-80
2021/03/26 07:11:00;;;;;;;64.30;36.60;;;;;;;;;;5113732;28;20048;-80
2021/03/26 07:13:49;;;;;;;61.90;35.08;;;;;;;;;;5110958;28;20134;-81
2021/03/26 07:16:30;;;;;;;56.80;33.15;;;;;;;;;;5112131;28;20061;-80
2021/03/26 07:19:15;;;;;;;52.78;32.50;;;;;;;;;;5112043;28;20301;-80
2021/03/26 07:22:05;;;;;;;57.78;32.53;;;;;;;;;;5090190;28;20054;-80
2021/03/26 07:24:48;;;;;;;55.65;33.70;;;;;;;;;;5090692;28;20059;-80
2021/03/26 07:27:36;;;;;;;52.83;30.73;;;;;;;;;;5092532;28;20411;-80
2021/03/26 07:30:11;;;;;;;52.17;30.80;;;;;;;;;;5117878;28;20545;-81
2021/03/26 07:32:55;;;;;;;41.60;26.98;;;;;;;;;;5105391;28;20107;-80
2021/03/26 07:35:42;;;;;;;41.75;26.00;;;;;;;;;;5094567;28;20043;-80
2021/03/26 07:38:15;;;;;;;39.75;25.25;;;;;;;;;;5096520;28;20040;-81
2021/03/26 07:41:07;;;;;;;42.80;26.52;;;;;;;;;;5116316;28;20036;-80
2021/03/26 07:43:52;;;;;;;40.13;25.42;;;;;;;;;;5092495;28;20052;-80
2021/03/26 07:49:59;;;;;;;43.05;24.00;;;;;;;;;;5102151;28;20077;-80
2021/03/26 07:52:46;;;;;;;39.60;22.48;;;;;;;;;;5091612;28;20058;-80
2021/03/26 07:55:35;;;;;;;39.58;23.55;;;;;;;;;;5109446;28;20320;-81
2021/03/26 07:58:11;;;;;;;36.13;22.52;;;;;;;;;;5108408;28;20228;-80
2021/03/26 08:00:48;;;;;;;39.40;22.67;;;;;;;;;;5098985;28;20051;-81
2021/03/26 08:03:26;;;;;;;35.63;22.73;;;;;;;;;;5115170;28;20301;-80
2021/03/26 08:06:27;;;;;;;39.33;22.85;;;;;;;;;;5119353;28;20075;-80
2021/03/26 08:08:54;;;;;;;35.80;22.50;;;;;;;;;;5083597;28;20055;-80
2021/03/26 08:11:41;;;;;;;31.63;20.17;;;;;;;;;;5103499;28;20036;-81
2021/03/26 08:14:26;;;;;;;34.97;21.15;;;;;;;;;;5093043;28;20056;-81
2021/03/26 08:17:19;;;;;;;33.05;20.83;;;;;;;;;;5105192;28;20092;-81
2021/03/26 08:19:52;;;;;;;32.90;20.90;;;;;;;;;;5119551;28;20173;-80
2021/03/26 08:22:35;;;;;;;32.67;20.35;;;;;;;;;;5121543;28;20055;-80
2021/03/26 08:25:13;;;;;;;33.72;20.10;;;;;;;;;;5121022;28;20106;-81
2021/03/26 08:27:45;;;;;;;29.95;19.73;;;;;;;;;;5127747;28;20043;-81
2021/03/26 08:30:20;;;;;;;28.73;19.02;;;;;;;;;;5128213;28;20062;-81
2021/03/26 08:32:55;;;;;;;32.08;19.23;;;;;;;;;;5109035;28;20062;-81
2021/03/26 08:35:45;;;;;;;32.80;21.10;;;;;;;;;;5107018;28;20048;-80
2021/03/26 08:38:33;;;;;;;34.67;21.90;;;;;;;;;;5108765;28;20059;-80
2021/03/26 08:41:25;;;;;;;32.53;21.23;;;;;;;;;;5105802;28;20052;-80
2021/03/26 08:43:52;;;;;;;34.05;20.02;;;;;;;;;;5107498;28;20074;-80
2021/03/26 08:46:38;;;;;;;35.08;20.17;;;;;;;;;;5100476;28;20369;-81
2021/03/26 08:49:10;;;;;;;31.15;20.23;;;;;;;;;;5122868;27;20059;-81
2021/03/26 08:51:36;;;;;;;30.17;20.50;;;;;;;;;;5109695;28;20108;-80
2021/03/26 08:54:24;;;;;;;37.95;21.27;;;;;;;;;;5113987;28;20113;-81
2021/03/26 08:57:31;;;;;;;30.98;21.08;;;;;;;;;;5110570;28;20121;-81
2021/03/26 09:00:36;;;;;;;30.33;20.15;;;;;;;;;;5113958;28;20224;-82
2021/03/26 09:03:36;;;;;;;33.65;22.05;;;;;;;;;;5094952;28;20052;-82
2021/03/26 09:06:05;;;;;;;32.42;20.55;;;;;;;;;;5093344;28;20097;-82
2021/03/26 09:08:41;;;;;;;34.33;21.77;;;;;;;;;;5092120;28;20158;-82
2021/03/26 09:11:29;;;;;;;34.88;22.73;;;;;;;;;;5090521;28;20054;-82
2021/03/26 09:14:04;;;;;;;31.42;20.27;;;;;;;;;;5090965;28;20071;-82
2021/03/26 09:16:32;;;;;;;31.27;19.40;;;;;;;;;;5089576;28;20070;-82
2021/03/26 09:19:04;;;;;;;34.38;18.95;;;;;;;;;;5090361;28;20140;-81
2021/03/26 09:21:33;;;;;;;30.42;19.00;;;;;;;;;;5091722;28;20052;-81
2021/03/26 09:24:12;;;;;;;27.38;18.83;;;;;;;;;;5092486;28;20256;-82
2021/03/26 09:26:53;;;;;;;32.00;18.63;;;;;;;;;;5100892;28;20067;-81
2021/03/26 09:29:31;;;;;;;28.33;18.17;;;;;;;;;;5114152;28;20576;-81
2021/03/26 09:32:16;;;;;;;29.55;17.92;;;;;;;;;;5113385;28;20540;-81
2021/03/26 09:34:46;;;;;;;30.00;17.85;;;;;;;;;;5107739;28;20127;-81
2021/03/26 09:37:15;;;;;;;31.60;17.58;;;;;;;;;;5113897;28;20039;-81
2021/03/26 09:40:05;;;;;;;28.17;16.55;;;;;;;;;;5115756;28;20132;-80
2021/03/26 09:42:42;;;;;;;30.38;17.98;;;;;;;;;;5111213;28;20050;-80
2021/03/26 09:45:13;;;;;;;24.77;14.55;;;;;;;;;;5112593;28;20430;-81
2021/03/26 09:48:05;;;;;;;19.42;12.57;;;;;;;;;;5110368;28;20120;-80
2021/03/26 09:50:35;;;;;;;20.55;11.55;;;;;;;;;;5095878;28;20048;-81
2021/03/26 09:53:12;;;;;;;19.00;10.82;;;;;;;;;;5089284;28;20044;-81
2021/03/26 09:55:41;;;;;;;18.13;10.75;;;;;;;;;;5090369;28;20113;-81
2021/03/26 09:58:30;;;;;;;21.58;11.35;;;;;;;;;;5091501;28;20087;-82
2021/03/26 10:01:17;;;;;;;19.10;11.40;;;;;;;;;;5089306;28;20300;-81
2021/03/26 10:03:53;;;;;;;21.30;11.15;;;;;;;;;;5089442;28;20216;-80
2021/03/26 10:06:53;;;;;;;19.15;11.95;;;;;;;;;;5088857;28;20298;-80
2021/03/26 10:10:42;;;;;;;26.23;14.50;;;;;;;;;;5091017;28;20328;-81
2021/03/26 10:12:28;;;;;;;22.00;12.52;;;;;;;;;;5094056;27;20062;-82
2021/03/26 10:15:08;;;;;;;21.50;12.00;;;;;;;;;;5092355;28;20063;-80
2021/03/26 10:17:38;;;;;;;22.80;13.82;;;;;;;;;;5094789;28;20139;-81
2021/03/26 10:20:11;;;;;;;19.15;13.18;;;;;;;;;;5103108;28;20036;-81
2021/03/26 10:22:47;;;;;;;24.27;14.88;;;;;;;;;;5107889;28;20177;-80
2021/03/26 10:25:15;;;;;;;;;;;;;;;;;;5107405;28;20076;-81
2021/03/26 10:27:49;;;;;;;23.33;14.30;;;;;;;;;;5147469;27;19946;-82
2021/03/26 10:30:22;;;;;;;22.58;14.40;;;;;;;;;;5123513;28;20209;-81
2021/03/26 10:33:07;;;;;;;22.70;13.85;;;;;;;;;;5113046;27;20062;-82
2021/03/26 10:35:37;;;;;;;23.48;14.75;;;;;;;;;;5116098;28;20047;-82
2021/03/26 10:38:16;;;;;;;26.75;16.25;;;;;;;;;;5112072;28;20058;-81
2021/03/26 10:40:48;;;;;;;26.13;15.20;;;;;;;;;;5123569;28;20043;-82
2021/03/26 10:43:20;;;;;;;29.15;15.50;;;;;;;;;;5107452;28;20135;-80
2021/03/26 10:46:02;;;;;;;27.50;15.65;;;;;;;;;;5114939;28;20031;-80
2021/03/26 10:48:44;;;;;;;20.75;14.90;;;;;;;;;;5115705;28;20035;-80
2021/03/26 10:51:33;;;;;;;23.23;14.57;;;;;;;;;;5105322;28;20056;-80
2021/03/26 10:54:16;;;;;;;22.90;15.10;;;;;;;;;;5098037;28;20096;-80
2021/03/26 10:56:48;;;;;;;27.05;15.13;;;;;;;;;;5100981;28;20027;-80
2021/03/26 10:59:33;;;;;;;23.35;14.57;;;;;;;;;;5106669;28;20070;-80
2021/03/26 11:02:24;;;;;;;24.30;15.25;;;;;;;;;;5111670;28;20052;-79
2021/03/26 11:05:05;;;;;;;24.58;14.73;;;;;;;;;;5092047;28;20051;-82
2021/03/26 11:07:43;;;;;;;25.35;16.55;;;;;;;;;;5101597;28;20082;-82
2021/03/26 11:10:17;;;;;;;27.77;17.42;;;;;;;;;;5150759;27;20081;-80
2021/03/26 11:12:51;;;;;;;27.55;15.73;;;;;;;;;;5127467;27;20099;-80
2021/03/26 11:15:21;;;;;;;24.02;15.25;;;;;;;;;;5124250;28;20116;-79
2021/03/26 11:17:58;;;;;;;26.33;16.23;;;;;;;;;;5120871;27;20423;-80
2021/03/26 11:20:52;;;;;;;23.63;15.70;;;;;;;;;;5121365;27;20083;-80
2021/03/26 11:23:25;;;;;;;23.08;16.00;;;;;;;;;;5097946;27;20575;-81
2021/03/26 11:26:13;;;;;;;25.45;15.57;;;;;;;;;;5143414;27;20081;-81
2021/03/26 11:28:46;;;;;;;26.33;15.85;;;;;;;;;;5111582;28;20059;-81
2021/03/26 11:31:31;;;;;;;27.20;14.63;;;;;;;;;;5110679;28;20039;-81
2021/03/26 11:34:24;;;;;;;20.08;14.00;;;;;;;;;;5109077;28;20432;-81
2021/03/26 11:37:13;;;;;;;21.98;15.55;;;;;;;;;;5108624;28;20063;-81
2021/03/26 11:39:58;;;;;;;25.25;15.68;;;;;;;;;;5092220;28;20043;-81
2021/03/26 11:42:43;;;;;;;22.23;14.90;;;;;;;;;;5107983;28;20112;-81
2021/03/26 11:45:22;;;;;;;21.85;14.70;;;;;;;;;;5106878;28;20112;-81
2021/03/26 11:48:09;;;;;;;25.02;15.27;;;;;;;;;;5108569;28;20100;-80
2021/03/26 11:50:52;;;;;;;21.58;14.55;;;;;;;;;;5112726;28;20089;-81
2021/03/26 11:53:23;;;;;;;24.27;14.30;;;;;;;;;;5110713;28;20613;-81
2021/03/26 11:56:03;;;;;;;24.08;15.68;;;;;;;;;;5107669;28;20638;-81
2021/03/26 11:58:58;;;;;;;21.95;14.23;;;;;;;;;;5110762;28;20096;-81
2021/03/26 12:01:29;;;;;;;22.35;15.13;;;;;;;;;;5117011;28;20035;-80
2021/03/26 12:04:11;;;;;;;23.05;15.55;;;;;;;;;;5121392;28;20051;-81
2021/03/26 12:07:01;;;;;;;21.98;15.65;;;;;;;;;;5100820;28;20377;-81
2021/03/26 12:09:51;;;;;;;21.70;15.50;;;;;;;;;;5100846;28;20047;-81
2021/03/26 12:12:37;;;;;;;24.90;16.17;;;;;;;;;;5107111;28;20079;-81
2021/03/26 12:15:10;;;;;;;22.73;15.18;;;;;;;;;;5107764;28;20491;-80
2021/03/26 12:17:38;;;;;;;22.50;15.63;;;;;;;;;;5095850;28;20366;-80
2021/03/26 12:20:25;;;;;;;25.52;15.85;;;;;;;;;;5105333;28;20441;-80
2021/03/26 12:22:57;;;;;;;26.13;16.00;;;;;;;;;;5108344;28;20116;-81
2021/03/26 12:25:36;;;;;;;23.45;14.98;;;;;;;;;;5107439;28;20419;-80
2021/03/26 12:28:11;;;;;;;22.20;14.45;;;;;;;;;;5109155;28;20085;-80
2021/03/26 12:30:47;;;;;;;22.50;15.45;;;;;;;;;;5108774;28;20059;-81
2021/03/26 12:33:28;;;;;;;20.20;13.93;;;;;;;;;;5107317;28;20047;-81
2021/03/26 12:35:59;;;;;;;21.17;14.23;;;;;;;;;;5109821;28;20216;-81
2021/03/26 12:38:42;;;;;;;23.50;14.27;;;;;;;;;;5103758;28;20179;-81
2021/03/26 12:41:23;;;;;;;22.67;13.68;;;;;;;;;;5085855;28;20044;-80
2021/03/26 12:44:07;;;;;;;22.00;14.02;;;;;;;;;;5088036;28;20197;-80
2021/03/26 12:46:52;;;;;;;20.02;13.38;;;;;;;;;;5089438;28;20173;-80
2021/03/26 12:49:26;;;;;;;24.35;13.98;;;;;;;;;;5087911;28;20401;-80
2021/03/26 12:52:08;;;;;;;19.92;12.75;;;;;;;;;;5103582;28;20107;-80
2021/03/26 12:54:44;;;;;;;19.30;12.40;;;;;;;;;;5109341;28;20178;-80
2021/03/26 12:57:17;;;;;;;17.67;11.18;;;;;;;;;;5106337;28;20044;-81
2021/03/26 13:00:05;;;;;;;21.85;12.18;;;;;;;;;;5103728;28;20101;-80
2021/03/26 13:02:34;;;;;;;14.68;10.15;;;;;;;;;;5088427;28;20064;-80
2021/03/26 13:05:10;;;;;;;14.90;9.68;;;;;;;;;;5089456;28;20052;-79
2021/03/26 13:08:01;;;;;;;14.68;9.43;;;;;;;;;;5088013;28;20094;-80
2021/03/26 13:10:30;;;;;;;16.95;10.40;;;;;;;;;;5092019;28;20047;-80
2021/03/26 13:13:23;;;;;;;20.02;10.13;;;;;;;;;;5108544;28;20314;-80
2021/03/26 13:16:19;;;;;;;20.47;10.33;;;;;;;;;;5099839;28;20047;-80
2021/03/26 13:18:47;;;;;;;17.60;10.45;;;;;;;;;;5107036;28;20534;-80
2021/03/26 13:21:20;;;;;;;17.95;10.70;;;;;;;;;;5110316;28;20416;-80
2021/03/26 13:23:47;;;;;;;14.50;10.00;;;;;;;;;;5108852;28;20059;-80
2021/03/26 13:26:18;;;;;;;13.43;8.60;;;;;;;;;;5109379;28;20318;-80
2021/03/26 13:28:51;;;;;;;15.00;9.65;;;;;;;;;;5097838;27;20048;-79
2021/03/26 13:31:46;;;;;;;16.23;9.90;;;;;;;;;;5102167;28;20218;-81
2021/03/26 13:34:18;;;;;;;15.63;9.48;;;;;;;;;;5086189;28;20044;-81
2021/03/26 13:36:56;;;;;;;14.60;9.18;;;;;;;;;;5087425;28;20086;-81
2021/03/26 13:39:31;;;;;;;16.90;10.30;;;;;;;;;;5088680;28;20265;-79
2021/03/26 13:42:09;;;;;;;18.08;11.25;;;;;;;;;;5088489;28;20294;-80
2021/03/26 13:44:43;;;;;;;16.92;11.13;;;;;;;;;;5087991;28;20205;-79
2021/03/26 13:47:18;;;;;;;18.02;10.60;;;;;;;;;;5089613;28;20044;-79
2021/03/26 13:49:57;;;;;;;20.33;11.48;;;;;;;;;;5090950;28;20292;-79
2021/03/26 13:52:33;;;;;;;17.35;12.27;;;;;;;;;;5093576;28;20052;-78
2021/03/26 13:55:21;;;;;;;16.13;10.48;;;;;;;;;;5106832;27;20256;-81
2021/03/26 13:58:15;;;;;;;20.13;11.63;;;;;;;;;;5071867;28;20051;-80
2021/03/26 14:00:44;;;;;;;20.25;11.23;;;;;;;;;;5081728;27;20047;-80
2021/03/26 14:03:39;;;;;;;18.50;11.25;;;;;;;;;;5110301;28;20048;-80
2021/03/26 14:06:30;;;;;;;20.23;10.77;;;;;;;;;;5067040;28;20147;-80
2021/03/26 14:09:00;;;;;;;19.08;10.32;;;;;;;;;;5088019;28;20164;-80
2021/03/26 14:11:48;;;;;;;13.85;9.13;;;;;;;;;;5108273;28;20048;-80
2021/03/26 14:14:17;;;;;;;16.10;9.93;;;;;;;;;;5102374;28;20254;-80
2021/03/26 14:16:51;;;;;;;17.15;10.18;;;;;;;;;;5120364;28;20031;-80
2021/03/26 14:19:27;;;;;;;18.85;12.05;;;;;;;;;;5092353;28;20143;-79
2021/03/26 14:21:57;;;;;;;18.00;11.77;;;;;;;;;;5104493;28;20145;-80
2021/03/26 14:24:54;;;;;;;22.67;13.35;;;;;;;;;;5124422;27;20113;-79
2021/03/26 14:27:26;;;;;;;16.60;10.77;;;;;;;;;;5097099;28;20119;-79
2021/03/26 14:30:13;;;;;;;16.52;10.55;;;;;;;;;;5102645;28;20297;-79
2021/03/26 14:33:04;;;;;;;18.13;10.55;;;;;;;;;;5082971;28;20257;-80
2021/03/26 14:35:49;;;;;;;19.83;11.75;;;;;;;;;;5086486;28;20052;-80
2021/03/26 14:38:19;;;;;;;19.77;12.18;;;;;;;;;;5097519;28;20055;-80
2021/03/26 14:41:05;;;;;;;14.13;9.88;;;;;;;;;;5106283;28;20143;-80
2021/03/26 14:43:37;;;;;;;18.20;11.25;;;;;;;;;;5098647;28;20056;-80
2021/03/26 14:46:04;;;;;;;19.15;11.13;;;;;;;;;;5102771;27;20051;-80
2021/03/26 14:48:46;;;;;;;16.33;11.27;;;;;;;;;;5086095;28;20044;-80
2021/03/26 14:51:34;;;;;;;18.90;10.80;;;;;;;;;;5089692;28;20119;-81
2021/03/26 14:54:19;;;;;;;16.65;10.85;;;;;;;;;;5087391;28;20055;-80
2021/03/26 14:56:58;;;;;;;15.00;9.15;;;;;;;;;;5087212;28;20124;-78
2021/03/26 15:00:00;;;;;;;14.85;9.65;;;;;;;;;;5086982;28;20059;-80
2021/03/26 15:02:36;;;;;;;15.18;9.63;;;;;;;;;;5087080;28;20059;-80
2021/03/26 15:05:04;;;;;;;15.48;10.15;;;;;;;;;;5087302;28;20366;-79
2021/03/26 15:07:36;;;;;;;17.67;10.15;;;;;;;;;;5087692;28;20140;-79
2021/03/26 15:10:23;;;;;;;13.95;9.52;;;;;;;;;;5119248;27;20048;-79
2021/03/26 15:12:55;;;;;;;17.58;10.60;;;;;;;;;;5094171;28;20108;-79
2021/03/26 15:15:27;;;;;;;14.60;9.90;;;;;;;;;;5107145;28;20136;-79